Messwerte Bukoba

Temperatur

Temperatur
°C
1594188000 9.00 9.00 24
1594191600 10.00 10.00 24
1594195200 11.00 11.00 24
1594198800 12.00 12.00 25
1594202400 13.00 13.00 26
1594206000 14.00 14.00 26
1594209600 15.00 15.00 26
1594213200 16.00 16.00 25
1594216800 17.00 17.00 25
1594220400 18.00 18.00 25
1594224000 19.00 19.00 23
1594227600 20.00 20.00 23
1594231200 21.00 21.00 21
1594234800 22.00 22.00 21
1594238400 23.00 23.00
1594242000 0.00 0.00 19
1594245600 1.00 1.00
1594249200 2.00 2.00
1594252800 3.00 3.00 17
1594256400 4.00 4.00 17
1594260000 5.00 5.00
1594263600 6.00 6.00 18
1594267200 7.00 7.00
1594270800 8.00 8.00 21

Aktuellste Messwerte

Wettercharakter
Wetter: wolkig, aber kaum Regen
Temperatur
21 °C
Feuchtigkeit
80 %
Wind
10 km/hWindrichtung: Südwest
Luftdruck
1017 hPa
Messzeit: 9. Juli 2020, 8.00Datenquelle: METAR

Weitere Messstationen in der Nähe

Messstation Temperatur Entfernung
Entebbe - 169 km
Mwanza 19 °C 176 km
Kigali 17 °C 202 km
Musoma 19 °C 221 km
Kisumu - 353 km
Tabora - 431 km
Eldoret 13 °C 436 km

Wind

Windrichtung Böen Mittelwind
° km/h km/h
1594188000 9.00 8.00 - 9.00 160° 20
1594191600 10.00 9.00 - 10.00 160° 15
1594195200 11.00 10.00 - 11.00 160° 10
1594198800 12.00 11.00 - 12.00 160° 20
1594202400 13.00 12.00 - 13.00 150° 20
1594206000 14.00 13.00 - 14.00 110° 20
1594209600 15.00 14.00 - 15.00 120° 10
1594213200 16.00 15.00 - 16.00 160° 5
1594216800 17.00 16.00 - 17.00 150° 5
1594220400 18.00 17.00 - 18.00 0
1594224000 19.00 18.00 - 19.00 0
1594227600 20.00 19.00 - 20.00 0
1594231200 21.00 20.00 - 21.00 0
1594234800 22.00 21.00 - 22.00 0
1594238400 23.00 22.00 - 23.00
1594242000 0.00 23.00 - 0.00 0
1594245600 1.00 0.00 - 1.00
1594249200 2.00 1.00 - 2.00
1594252800 3.00 2.00 - 3.00 0
1594256400 4.00 3.00 - 4.00 0
1594260000 5.00 4.00 - 5.00
1594263600 6.00 5.00 - 6.00 0
1594267200 7.00 6.00 - 7.00 0
1594270800 8.00 7.00 - 8.00 210° 10

Ihre Wetterstation

Fehlt Ihre Wetterstation auf unserem Portal?

Schreiben Sie an network@meteonews.ch